Terminal Aerodrome Forecast
Issued by NWS

Home | Current Version | Previous Version | Text Only | Print | Product List | Glossary On
Versions: 1 2 3 4 5 6 7 8 9 10 11 12 13 14 15 16 17 18 19 20 21
000
FTUS42 KTAE 202327
TAFECP
TAF
KECP 202327Z 2100/2124 15005KT P6SM SCT250
     FM210900 11006KT 3SM BR SCT006 SCT040 BKN250
     FM211300 13012G18KT P6SM BKN040
     FM211800 15013G20KT 5SM -RA OVC040=

USA.gov is the U.S. government's official web portal to all federal, state and local government web resources and services.